Terminal Aerodrome Forecast
Issued by NWS Sioux Falls, SD

Home | Current Version | Previous Version | Text Only | Print | Product List | Glossary On
Versions: 1 2 3 4 5 6 7 8 9 10 11 12 13 14 15 16 17 18 19 20
000
FTUS43 KFSD 300836 AAA
TAFFSD
TAF AMD
KFSD 300836Z 3009/3106 10005KT P6SM BKN080
     FM301000 11006KT P6SM VCTS BKN080CB
     FM301300 13010KT P6SM SCT080
     FM301600 15013G20KT P6SM SCT050 SCT100
     FM310100 16010KT P6SM VCTS BKN050CB
     FM310300 16009KT P6SM -TSRA BKN050CB=

USA.gov is the U.S. government's official web portal to all federal, state and local government web resources and services.